Terminal Aerodrome Forecast
Issued by NWS

Home | Current Version | Previous Version | Graphics & Text | Print | Product List | Glossary On
Versions: 1 2 3 4 5 6 7 8 9 10 11 12 13 14 15 16
000
FTUS43 KUNR 302216 AAA
TAFGCC
TAF AMD
KGCC 302216Z 3022/3118 33015G25KT P6SM BKN060
      TEMPO 3022/3024 P6SM -TSRA BKN050CB
     FM310200 30011KT P6SM BKN100
     FM310600 27009KT P6SM SCT150=

USA.gov is the U.S. government's official web portal to all federal, state and local government web resources and services.